KIWD/IWD METAR and TAF weather

Enter ICAO airport designator
Station Type Date Time Source
KIWD METAR 2022/11/30 10:56 UTC NOAA

KIWD 301056Z AUTO 26017G23KT 7SM -SN OVC015 M07/M08 A2956 RMK AO2 SLP027 P0000 T10671083 FZRANO


Station Type Date Time Source
KIWD Decoded METAR 2022/11/30 10:56 UTC NOAA

Ironwood, Gogebic-Iron County Airport, MI, United States (KIWD) 46-32N 090-08W
Nov 30, 2022 - 05:56 AM EST / 2022.11.30 1056 UTC
Wind: from the W (260 degrees) at 20 MPH (17 KT) gusting to 26 MPH (23 KT):0
Visibility: 7 mile(s):0
Sky conditions: overcast
Weather: light snow
Precipitation last hour: A trace
Temperature: 19.9 F (-6.7 C)
Windchill: 5 F (-15 C):1
Dew Point: 17.1 F (-8.3 C)
Relative Humidity: 88%
Pressure (altimeter): 29.56 in. Hg (1001 hPa)
ob: KIWD 301056Z AUTO 26017G23KT 7SM -SN OVC015 M07/M08 A2956 RMK AO2 SLP027 P0000 T10671083 FZRANO
cycle: 11

Station Type Date Time Source
KIWD TAF 2022/11/30 06:27 UTC NOAA

TAF KIWD 300523Z 3006/0106 27016G24KT P6SM -SHSN OVC015
FM301000 27016G28KT P6SM -SHSN OVC013
FM301200 27016G30KT 3SM -SHSN BKN014
FM301400 27017G31KT 5SM -SHSN BLSN BKN015
FM010000 28017G30KT P6SM BKN017
FM010400 28013G24KT P6SM BKN019

Example: see airport list